createdAt,value
2023-03-26T00:00:09.297Z,98149.66
2023-03-26T00:01:17.399Z,98144.00
2023-03-26T00:02:19.376Z,98133.53
2023-03-26T00:03:22.348Z,98138.41
2023-03-26T00:04:25.382Z,98137.59
2023-03-26T00:05:27.231Z,98127.63
2023-03-26T00:06:38.816Z,98131.13
2023-03-26T00:07:41.304Z,98141.88
2023-03-26T00:08:45.686Z,98142.16
2023-03-26T00:09:47.549Z,98126.84
2023-03-26T00:10:49.387Z,98131.13
2023-03-26T00:11:51.269Z,98117.16
2023-03-26T00:12:53.215Z,98120.94
2023-03-26T00:13:59.747Z,98130.88
2023-03-26T00:15:01.643Z,98126.59
2023-03-26T00:16:04.823Z,98127.38
2023-03-26T00:17:08.336Z,98119.31
2023-03-26T00:18:10.156Z,98123.09
2023-03-26T00:19:12.780Z,98127.38
2023-03-26T00:20:14.686Z,98120.13
2023-03-26T00:21:21.250Z,98119.06
2023-03-26T00:22:23.546Z,98122.00
2023-03-26T00:23:27.061Z,98122.28
2023-03-26T00:24:29.781Z,98122.00
2023-03-26T00:25:32.001Z,98122.59
2023-03-26T00:26:37.606Z,98117.41
2023-03-26T00:27:39.654Z,98120.41
2023-03-26T00:28:42.725Z,98117.22
2023-03-26T00:29:44.774Z,98122.00
2023-03-26T00:30:47.027Z,98126.06
2023-03-26T00:31:49.001Z,98126.88
2023-03-26T00:32:53.733Z,98121.50
2023-03-26T00:33:56.316Z,98116.41
2023-03-26T00:34:58.370Z,98118.81
2023-03-26T00:36:03.883Z,98121.50
2023-03-26T00:37:06.282Z,98121.50
2023-03-26T00:38:08.846Z,98122.88
2023-03-26T00:39:10.712Z,98123.16
2023-03-26T00:40:13.038Z,98107.25
2023-03-26T00:41:22.637Z,98113.44
2023-03-26T00:42:25.010Z,98117.22
2023-03-26T00:43:26.833Z,98118.28
2023-03-26T00:44:28.744Z,98122.59
2023-03-26T00:45:30.845Z,98115.91
2023-03-26T00:46:32.806Z,98113.22
2023-03-26T00:47:36.006Z,98110.81
2023-03-26T00:48:45.108Z,98115.91
2023-03-26T00:49:48.817Z,98110.50
2023-03-26T00:50:51.096Z,98108.91
2023-03-26T00:51:53.264Z,98106.22
2023-03-26T00:52:55.863Z,98105.44
2023-03-26T00:53:58.424Z,98108.13
2023-03-26T00:55:00.274Z,98102.75
2023-03-26T00:56:02.076Z,98104.63
2023-03-26T00:57:06.803Z,98103.03
2023-03-26T00:58:12.163Z,98101.94
2023-03-26T00:59:13.978Z,98091.97
2023-03-26T01:00:18.920Z,98089.59
2023-03-26T01:01:28.640Z,98090.88
2023-03-26T01:02:33.006Z,98082.81
2023-03-26T01:03:38.505Z,98090.88
2023-03-26T01:04:44.922Z,98085.50
2023-03-26T01:06:19.711Z,98073.59
2023-03-26T01:07:28.825Z,98076.34
2023-03-26T01:08:39.906Z,98074.25
2023-03-26T01:09:50.205Z,98076.94
2023-03-26T01:11:02.868Z,98062.16
2023-03-26T01:12:08.828Z,98061.88
2023-03-26T01:13:10.948Z,98066.22
2023-03-26T01:14:19.298Z,98060.28
2023-03-26T01:15:22.223Z,98066.22
2023-03-26T01:16:42.039Z,98058.09
2023-03-26T01:17:43.922Z,98052.78
2023-03-26T01:18:47.019Z,98048.78
2023-03-26T01:20:12.678Z,98048.69
2023-03-26T01:21:23.793Z,98049.00
2023-03-26T01:22:27.247Z,98044.69
2023-03-26T01:23:41.599Z,98043.63
2023-03-26T01:24:46.081Z,98044.19
2023-03-26T01:26:02.509Z,98043.63
2023-03-26T01:27:21.141Z,98048.44
2023-03-26T01:28:30.752Z,98043.09
2023-03-26T01:29:52.674Z,98046.31
2023-03-26T01:31:31.381Z,98042.75
2023-03-26T01:32:57.821Z,98038.47
2023-03-26T01:34:21.377Z,98030.47
2023-03-26T01:35:49.685Z,98026.38
2023-03-26T01:37:13.136Z,98029.66
2023-03-26T01:38:38.620Z,98017.31
2023-03-26T01:40:10.043Z,98016.22
2023-03-26T01:41:37.400Z,98016.50
2023-03-26T01:43:12.727Z,98014.91
2023-03-26T01:44:48.144Z,98015.72
2023-03-26T01:45:52.365Z,98012.03
2023-03-26T01:46:55.604Z,98012.63
2023-03-26T01:47:58.123Z,98014.22
2023-03-26T01:49:00.044Z,98007.53
2023-03-26T01:50:01.986Z,98009.44
2023-03-26T01:51:06.398Z,98008.34
2023-03-26T01:52:19.511Z,98011.25
2023-03-26T01:53:21.726Z,98011.84
2023-03-26T01:54:28.326Z,98012.63
2023-03-26T01:56:02.327Z,98005.00
2023-03-26T01:57:27.558Z,98009.06
2023-03-26T01:59:03.839Z,98006.38
2023-03-26T02:00:12.135Z,98001.28
2023-03-26T02:01:36.630Z,98003.69
2023-03-26T02:02:50.704Z,98002.38
2023-03-26T02:04:08.389Z,97997.00
2023-03-26T02:05:32.934Z,97987.84
2023-03-26T02:06:46.729Z,97999.19
2023-03-26T02:08:09.552Z,97986.25
2023-03-26T02:09:20.699Z,97988.44
2023-03-26T02:10:27.833Z,97982.53
2023-03-26T02:11:35.361Z,97988.47
2023-03-26T02:12:38.733Z,97979.31
2023-03-26T02:13:44.468Z,97979.06
2023-03-26T02:14:46.625Z,97977.16
2023-03-26T02:16:03.311Z,97975.50
2023-03-26T02:17:06.046Z,97976.59
2023-03-26T02:18:10.847Z,97968.81
2023-03-26T02:19:21.844Z,97964.22
2023-03-26T02:20:23.877Z,97960.16
2023-03-26T02:21:28.420Z,97960.16
2023-03-26T02:22:32.150Z,97952.69
2023-03-26T02:23:35.853Z,97953.47
2023-03-26T02:24:38.828Z,97949.69
2023-03-26T02:25:42.696Z,97948.91
2023-03-26T02:26:45.723Z,97944.81
2023-03-26T02:27:49.752Z,97944.81
2023-03-26T02:28:51.628Z,97936.75
2023-03-26T02:29:53.487Z,97936.75
2023-03-26T02:30:57.612Z,97933.78
2023-03-26T02:31:59.522Z,97928.41
2023-03-26T02:33:01.616Z,97923.59
2023-03-26T02:34:03.618Z,97934.88
2023-03-26T02:35:06.860Z,97932.19
2023-03-26T02:36:10.757Z,97934.28
2023-03-26T02:37:12.749Z,97929.19
2023-03-26T02:38:14.628Z,97927.31
2023-03-26T02:39:16.867Z,97929.19
2023-03-26T02:40:21.253Z,97925.72
2023-03-26T02:41:23.354Z,97925.41
2023-03-26T02:42:25.463Z,97922.47
2023-03-26T02:43:27.793Z,97921.63
2023-03-26T02:44:29.716Z,97915.47
2023-03-26T02:45:31.620Z,97921.13
2023-03-26T02:46:34.114Z,97920.03
2023-03-26T02:47:35.984Z,97919.78
2023-03-26T02:48:38.018Z,97927.00
2023-03-26T02:49:39.910Z,97921.63
2023-03-26T02:50:42.175Z,97917.09
2023-03-26T02:51:44.393Z,97920.56
2023-03-26T02:52:49.012Z,97920.84
2023-03-26T02:53:53.565Z,97918.16
2023-03-26T02:54:56.157Z,97914.41
2023-03-26T02:56:00.342Z,97915.19
2023-03-26T02:57:02.291Z,97913.31
2023-03-26T02:58:04.158Z,97910.88
2023-03-26T02:59:06.052Z,97909.81
2023-03-26T03:00:09.232Z,97900.13
2023-03-26T03:01:11.093Z,97909.28
2023-03-26T03:02:13.527Z,97906.59
2023-03-26T03:03:17.221Z,97909.81
2023-03-26T03:04:19.584Z,97900.13
2023-03-26T03:05:26.282Z,97897.44
2023-03-26T03:06:30.958Z,97893.16
2023-03-26T03:07:32.768Z,97884.81
2023-03-26T03:08:34.673Z,97888.56
2023-03-26T03:09:36.541Z,97890.47
2023-03-26T03:10:39.471Z,97880.00
2023-03-26T03:11:41.686Z,97888.88
2023-03-26T03:12:43.500Z,97886.19
2023-03-26T03:13:46.199Z,97881.88
2023-03-26T03:14:48.146Z,97881.88
2023-03-26T03:15:50.024Z,97890.47
2023-03-26T03:16:51.924Z,97891.56
2023-03-26T03:17:53.847Z,97880.81
2023-03-26T03:18:58.984Z,97879.19
2023-03-26T03:20:00.897Z,97880.81
2023-03-26T03:21:04.420Z,97883.78
2023-03-26T03:22:06.281Z,97877.59
2023-03-26T03:23:08.221Z,97875.22
2023-03-26T03:24:11.620Z,97878.41
2023-03-26T03:25:14.379Z,97885.97
2023-03-26T03:26:27.643Z,97882.97
2023-03-26T03:27:29.798Z,97881.09
2023-03-26T03:28:31.569Z,97884.06
2023-03-26T03:29:33.381Z,97874.13
2023-03-26T03:30:36.119Z,97876.81
2023-03-26T03:31:37.963Z,97875.22
2023-03-26T03:32:39.747Z,97872.03
2023-03-26T03:33:42.952Z,97875.22
2023-03-26T03:34:44.849Z,97873.31
2023-03-26T03:35:49.538Z,97869.53
2023-03-26T03:36:51.541Z,97862.88
2023-03-26T03:37:53.970Z,97869.03
2023-03-26T03:39:02.087Z,97865.84
2023-03-26T03:40:08.183Z,97862.06
2023-03-26T03:41:11.290Z,97863.66
2023-03-26T03:42:13.050Z,97854.50
2023-03-26T03:43:14.884Z,97852.09
2023-03-26T03:44:16.898Z,97852.09
2023-03-26T03:45:19.219Z,97848.63
2023-03-26T03:46:21.081Z,97849.41
2023-03-26T03:47:23.112Z,97847.03
2023-03-26T03:48:25.751Z,97845.94
2023-03-26T03:49:27.576Z,97843.53
2023-03-26T03:50:29.375Z,97837.38
2023-03-26T03:51:31.286Z,97834.69
2023-03-26T03:52:33.752Z,97835.47
2023-03-26T03:53:37.314Z,97838.47
2023-03-26T03:54:39.266Z,97834.69
2023-03-26T03:55:42.007Z,97832.00
2023-03-26T03:56:45.558Z,97822.31
2023-03-26T03:57:47.456Z,97827.41
2023-03-26T03:58:49.545Z,97830.91
2023-03-26T03:59:51.388Z,97825.81
2023-03-26T04:01:00.743Z,97828.50
2023-03-26T04:02:02.690Z,97823.13
2023-03-26T04:03:06.434Z,97818.00
2023-03-26T04:04:09.093Z,97818.53
2023-03-26T04:05:11.924Z,97806.19
2023-03-26T04:06:14.267Z,97800.00
2023-03-26T04:07:16.559Z,97799.19
2023-03-26T04:08:18.721Z,97801.09
2023-03-26T04:09:20.845Z,97800.28
2023-03-26T04:10:22.622Z,97793.81
2023-03-26T04:11:24.485Z,97798.69
2023-03-26T04:12:31.380Z,97806.47
2023-03-26T04:13:33.217Z,97800.09
2023-03-26T04:14:35.740Z,97809.75
2023-03-26T04:15:37.690Z,97800.09
2023-03-26T04:16:39.547Z,97798.69
2023-03-26T04:17:42.816Z,97798.19
2023-03-26T04:18:47.423Z,97800.88
2023-03-26T04:19:50.409Z,97798.50
2023-03-26T04:20:52.261Z,97802.78
2023-03-26T04:21:54.490Z,97801.97
2023-03-26T04:22:56.364Z,97790.13
2023-03-26T04:23:58.246Z,97793.91
2023-03-26T04:25:02.308Z,97795.00
2023-03-26T04:26:07.515Z,97799.28
2023-03-26T04:27:16.489Z,97790.13
2023-03-26T04:28:26.412Z,97784.47
2023-03-26T04:29:32.728Z,97782.34
2023-03-26T04:30:35.422Z,97782.66
2023-03-26T04:31:38.181Z,97779.66
2023-03-26T04:32:40.465Z,97783.16
2023-03-26T04:33:49.105Z,97774.78
2023-03-26T04:34:51.108Z,97770.00
2023-03-26T04:35:53.085Z,97765.72
2023-03-26T04:36:55.123Z,97756.88
2023-03-26T04:37:57.081Z,97760.06
2023-03-26T04:39:04.643Z,97757.88
2023-03-26T04:40:17.505Z,97749.81
2023-03-26T04:41:20.016Z,97756.28
2023-03-26T04:42:22.240Z,97748.50
2023-03-26T04:43:24.088Z,97755.47
2023-03-26T04:44:25.997Z,97748.50
2023-03-26T04:45:30.279Z,97750.69
2023-03-26T04:46:33.633Z,97746.31
2023-03-26T04:47:37.046Z,97744.44
2023-03-26T04:48:39.028Z,97739.84
2023-03-26T04:49:41.299Z,97746.03
2023-03-26T04:50:45.768Z,97731.00
2023-03-26T04:51:47.978Z,97729.38
2023-03-26T04:52:50.504Z,97728.59
2023-03-26T04:53:59.600Z,97725.81
2023-03-26T04:55:01.887Z,97711.66
2023-03-26T04:56:23.759Z,97708.03
2023-03-26T04:57:30.652Z,97704.03
2023-03-26T04:58:33.076Z,97706.78
2023-03-26T04:59:36.113Z,97706.50
2023-03-26T05:00:38.009Z,97706.50
2023-03-26T05:01:41.942Z,97691.75
2023-03-26T05:02:43.915Z,97698.44
2023-03-26T05:03:45.971Z,97691.16
2023-03-26T05:04:49.876Z,97697.34
2023-03-26T05:05:51.880Z,97690.88
2023-03-26T05:06:54.102Z,97685.78
2023-03-26T05:07:56.749Z,97688.47
2023-03-26T05:08:58.608Z,97683.59
2023-03-26T05:10:03.333Z,97680.09
2023-03-26T05:11:11.353Z,97691.66
2023-03-26T05:12:13.295Z,97676.31
2023-03-26T05:13:15.439Z,97682.78
2023-03-26T05:14:18.181Z,97687.38
2023-03-26T05:15:20.280Z,97690.59
2023-03-26T05:16:22.481Z,97694.88
2023-03-26T05:17:26.137Z,97691.41
2023-03-26T05:18:27.895Z,97698.34
2023-03-26T05:19:29.700Z,97695.69
2023-03-26T05:20:31.847Z,97691.66
2023-03-26T05:21:33.625Z,97691.41
2023-03-26T05:22:37.923Z,97690.59
2023-03-26T05:23:40.275Z,97686.81
2023-03-26T05:24:42.479Z,97693.78
2023-03-26T05:25:44.316Z,97686.50
2023-03-26T05:26:46.163Z,97687.59
2023-03-26T05:27:48.805Z,97686.50
2023-03-26T05:28:52.513Z,97684.63
2023-03-26T05:30:01.866Z,97681.63
2023-03-26T05:31:03.922Z,97685.41
2023-03-26T05:32:07.163Z,97678.16
2023-03-26T05:33:09.062Z,97677.84
2023-03-26T05:34:11.323Z,97674.66
2023-03-26T05:35:13.248Z,97675.47
2023-03-26T05:36:17.191Z,97661.72
2023-03-26T05:37:20.386Z,97665.50
2023-03-26T05:38:22.247Z,97662.00
2023-03-26T05:39:26.389Z,97666.28
2023-03-26T05:40:28.548Z,97660.91
2023-03-26T05:41:30.413Z,97662.81
2023-03-26T05:42:32.202Z,97662.00
2023-03-26T05:43:35.241Z,97662.50
2023-03-26T05:44:37.082Z,97663.59
2023-03-26T05:45:38.918Z,97662.50
2023-03-26T05:46:40.842Z,97667.88
2023-03-26T05:47:43.290Z,97656.34
2023-03-26T05:48:45.737Z,97662.22
2023-03-26T05:49:47.544Z,97652.56
2023-03-26T05:50:51.584Z,97644.78
2023-03-26T05:51:55.450Z,97648.28
2023-03-26T05:52:57.390Z,97649.88
2023-03-26T05:53:59.191Z,97650.97
2023-03-26T05:55:01.068Z,97652.25
2023-03-26T05:56:04.177Z,97650.16
2023-03-26T05:57:06.224Z,97642.59
2023-03-26T05:58:07.983Z,97638.31
2023-03-26T05:59:09.831Z,97639.41
2023-03-26T06:00:12.258Z,97634.53
2023-03-26T06:01:18.909Z,97634.53
2023-03-26T06:02:20.777Z,97628.06
2023-03-26T06:03:23.146Z,97626.47
2023-03-26T06:04:25.423Z,97620.00
2023-03-26T06:05:32.535Z,97616.50
2023-03-26T06:06:34.418Z,97616.81
2023-03-26T06:07:36.411Z,97618.41
2023-03-26T06:08:39.597Z,97615.72
2023-03-26T06:09:41.472Z,97607.66
2023-03-26T06:10:43.839Z,97617.31
2023-03-26T06:11:45.748Z,97616.50
2023-03-26T06:12:47.637Z,97605.25
2023-03-26T06:13:49.494Z,97598.78
2023-03-26T06:14:51.382Z,97594.19
2023-03-26T06:15:53.433Z,97592.31
2023-03-26T06:16:55.233Z,97592.59
2023-03-26T06:17:57.024Z,97594.19
2023-03-26T06:18:58.996Z,97592.00
2023-03-26T06:20:00.987Z,97586.13
2023-03-26T06:21:04.328Z,97587.72
2023-03-26T06:22:06.501Z,97583.44
2023-03-26T06:23:08.369Z,97581.25
2023-03-26T06:24:10.234Z,97575.88
2023-03-26T06:25:12.040Z,97574.28
2023-03-26T06:26:13.903Z,97573.38
2023-03-26T06:27:15.682Z,97576.47
2023-03-26T06:28:17.818Z,97588.81
2023-03-26T06:29:20.134Z,97582.03
2023-03-26T06:30:22.014Z,97573.50
2023-03-26T06:31:23.936Z,97571.28
2023-03-26T06:32:25.894Z,97573.72
2023-03-26T06:33:28.691Z,97564.03
2023-03-26T06:34:30.798Z,97559.47
2023-03-26T06:35:33.023Z,97560.53
2023-03-26T06:36:34.909Z,97558.16
2023-03-26T06:37:36.990Z,97564.03
2023-03-26T06:38:38.857Z,97562.44
2023-03-26T06:39:40.836Z,97562.44
2023-03-26T06:40:42.674Z,97563.75
2023-03-26T06:41:44.528Z,97557.56
2023-03-26T06:43:07.615Z,97554.38
2023-03-26T06:44:08.198Z,97544.94
2023-03-26T06:45:10.531Z,97542.25
2023-03-26T06:46:13.232Z,97545.50
2023-03-26T06:47:15.268Z,97541.44
2023-03-26T06:48:17.048Z,97536.06
2023-03-26T06:49:18.891Z,97529.91
2023-03-26T06:50:21.197Z,97529.91
2023-03-26T06:51:23.119Z,97520.72
2023-03-26T06:52:25.010Z,97521.00
2023-03-26T06:53:26.899Z,97519.94
2023-03-26T06:54:28.811Z,97511.88
2023-03-26T06:55:31.323Z,97519.63
2023-03-26T06:56:33.304Z,97519.94
2023-03-26T06:57:35.296Z,97518.03
2023-03-26T06:58:37.350Z,97512.16
2023-03-26T06:59:39.206Z,97507.28
2023-03-26T07:00:42.317Z,97510.78
2023-03-26T07:01:45.849Z,97504.28
2023-03-26T07:02:48.772Z,97507.78
2023-03-26T07:03:50.805Z,97504.28
2023-03-26T07:04:53.508Z,97503.50
2023-03-26T07:05:55.414Z,97511.56
2023-03-26T07:06:57.250Z,97505.41
2023-03-26T07:07:59.075Z,97507.78
2023-03-26T07:09:01.008Z,97505.41
2023-03-26T07:10:02.997Z,97509.66
2023-03-26T07:11:05.360Z,97508.88
2023-03-26T07:12:07.578Z,97504.59
2023-03-26T07:13:09.467Z,97505.09
2023-03-26T07:14:11.256Z,97504.28
2023-03-26T07:15:13.574Z,97493.53
2023-03-26T07:16:15.481Z,97492.44
2023-03-26T07:17:17.354Z,97494.34
2023-03-26T07:18:19.196Z,97492.44
2023-03-26T07:19:21.264Z,97498.13
2023-03-26T07:20:23.908Z,97505.09
2023-03-26T07:21:26.232Z,97501.31
2023-03-26T07:22:28.563Z,97497.03
2023-03-26T07:23:30.726Z,97497.50
2023-03-26T07:24:32.886Z,97501.00
2023-03-26T07:25:35.209Z,97506.38
2023-03-26T07:26:55.218Z,97502.28
2023-03-26T07:28:26.766Z,97500.78
2023-03-26T07:29:56.788Z,97497.59
2023-03-26T07:31:35.999Z,97497.00
2023-03-26T07:33:30.461Z,97491.94
2023-03-26T07:35:10.584Z,97490.03
2023-03-26T07:36:36.053Z,97486.38
2023-03-26T07:38:16.212Z,97487.34
2023-03-26T07:39:51.262Z,97500.09
2023-03-26T07:41:23.690Z,97487.75
2023-03-26T07:42:37.341Z,97475.22
2023-03-26T07:44:33.645Z,97484.78
2023-03-26T07:45:41.911Z,97481.19
2023-03-26T07:46:44.116Z,97483.19
2023-03-26T07:47:49.445Z,97484.28
2023-03-26T07:48:53.988Z,97478.09
2023-03-26T07:49:59.969Z,97479.69
2023-03-26T07:51:02.974Z,97475.91
2023-03-26T07:52:05.263Z,97478.09
2023-03-26T07:53:07.651Z,97475.91
2023-03-26T07:54:11.242Z,97472.91
2023-03-26T07:55:16.190Z,97483.19
2023-03-26T07:57:04.442Z,97473.50
2023-03-26T07:58:50.710Z,97464.75
2023-03-26T08:00:12.149Z,97478.19
2023-03-26T08:02:02.691Z,97460.06
2023-03-26T08:03:45.442Z,97463.16
2023-03-26T08:05:28.745Z,97468.25
2023-03-26T08:06:38.198Z,97465.16
2023-03-26T08:08:10.617Z,97459.16
2023-03-26T08:09:45.733Z,97457.00
2023-03-26T08:11:20.792Z,97449.50
2023-03-26T08:13:07.089Z,97462.88
2023-03-26T08:14:38.539Z,97456.47
2023-03-26T08:15:59.045Z,97460.56
2023-03-26T08:17:54.365Z,97454.31
2023-03-26T08:19:43.092Z,97454.00
2023-03-26T08:20:58.447Z,97455.19
2023-03-26T08:22:31.143Z,97452.00
2023-03-26T08:24:04.809Z,97446.94
2023-03-26T08:25:34.823Z,97451.41
2023-03-26T08:27:13.476Z,97444.94
2023-03-26T08:28:30.159Z,97439.66
2023-03-26T08:29:57.996Z,97437.28
2023-03-26T08:31:02.816Z,97433.31
2023-03-26T08:32:12.514Z,97429.00
2023-03-26T08:33:22.944Z,97428.72
2023-03-26T08:34:24.877Z,97425.53
2023-03-26T08:35:28.375Z,97429.00
2023-03-26T08:36:30.345Z,97429.31
2023-03-26T08:37:32.242Z,97413.97
2023-03-26T08:38:34.132Z,97419.34
2023-03-26T08:39:38.802Z,97410.19
2023-03-26T08:41:08.240Z,97413.59
2023-03-26T08:42:18.933Z,97412.97
2023-03-26T08:43:58.287Z,97408.38
2023-03-26T08:45:54.724Z,97405.00
2023-03-26T08:47:02.132Z,97402.22
2023-03-26T08:48:41.287Z,97398.94
2023-03-26T08:50:26.122Z,97394.84
2023-03-26T08:51:51.482Z,97400.53
2023-03-26T08:53:15.394Z,97397.06
2023-03-26T08:54:52.206Z,97408.09
2023-03-26T08:56:32.915Z,97396.75
2023-03-26T08:58:13.502Z,97402.13
2023-03-26T08:59:27.653Z,97406.22
2023-03-26T09:00:40.858Z,97401.91
2023-03-26T09:02:00.755Z,97409.69
2023-03-26T09:03:23.258Z,97413.28
2023-03-26T09:05:00.513Z,97412.66
2023-03-26T09:06:47.740Z,97409.88
2023-03-26T09:08:30.008Z,97408.00
2023-03-26T09:10:22.595Z,97401.63
2023-03-26T09:12:04.517Z,97393.56
2023-03-26T09:13:18.113Z,97389.88
2023-03-26T09:15:11.367Z,97405.13
2023-03-26T09:16:38.284Z,97404.41
2023-03-26T09:17:40.101Z,97401.84
2023-03-26T09:18:57.544Z,97410.09
2023-03-26T09:20:49.938Z,97411.78
2023-03-26T09:22:40.999Z,97412.09
2023-03-26T09:24:39.046Z,97389.16
2023-03-26T09:26:18.416Z,97384.41
2023-03-26T09:27:45.017Z,97378.81
2023-03-26T09:29:07.965Z,97371.06
2023-03-26T09:30:21.741Z,97378.63
2023-03-26T09:32:04.759Z,97378.72
2023-03-26T09:33:42.741Z,97379.31
2023-03-26T09:35:19.750Z,97380.13
2023-03-26T09:37:02.569Z,97383.59
2023-03-26T09:39:05.005Z,97379.50
2023-03-26T09:40:29.491Z,97369.06
2023-03-26T09:41:43.725Z,97380.41
2023-03-26T09:43:28.045Z,97377.13
2023-03-26T09:44:56.852Z,97373.53
2023-03-26T09:46:29.677Z,97378.59
2023-03-26T09:48:16.124Z,97378.09
2023-03-26T09:49:49.736Z,97371.13
2023-03-26T09:51:29.845Z,97378.28
2023-03-26T09:53:02.033Z,97371.84
2023-03-26T09:54:46.372Z,97381.50
2023-03-26T09:55:57.183Z,97384.41
2023-03-26T09:57:04.838Z,97389.25
2023-03-26T09:58:33.099Z,97395.81
2023-03-26T10:00:03.136Z,97397.53
2023-03-26T10:01:20.382Z,97393.44
2023-03-26T10:02:50.270Z,97395.50
2023-03-26T10:04:24.435Z,97388.06
2023-03-26T10:05:42.868Z,97382.81
2023-03-26T10:07:13.164Z,97385.69
2023-03-26T10:08:39.272Z,97384.75
2023-03-26T10:10:26.361Z,97385.28
2023-03-26T10:12:02.990Z,97381.28
2023-03-26T10:13:19.737Z,97394.41
2023-03-26T10:14:54.080Z,97385.28
2023-03-26T10:16:08.174Z,97381.59
2023-03-26T10:17:25.670Z,97381.28
2023-03-26T10:18:46.187Z,97371.31
2023-03-26T10:19:59.784Z,97369.72
2023-03-26T10:21:11.204Z,97379.38
2023-03-26T10:22:48.825Z,97374.09
2023-03-26T10:24:24.451Z,97392.13
2023-03-26T10:25:56.343Z,97379.47
2023-03-26T10:27:18.574Z,97388.44
2023-03-26T10:28:50.506Z,97385.16
2023-03-26T10:30:16.487Z,97390.84
2023-03-26T10:31:51.492Z,97394.19
2023-03-26T10:33:25.109Z,97378.84
2023-03-26T10:34:52.754Z,97376.47
2023-03-26T10:36:12.648Z,97382.94
2023-03-26T10:37:38.610Z,97378.06
2023-03-26T10:39:38.239Z,97377.25
2023-03-26T10:40:53.983Z,97378.06
2023-03-26T10:42:28.821Z,97362.72
2023-03-26T10:43:49.786Z,97369.69
2023-03-26T10:45:33.500Z,97376.22
2023-03-26T10:47:11.234Z,97370.97
2023-03-26T10:48:31.036Z,97367.19
2023-03-26T10:50:08.058Z,97352.03
2023-03-26T10:51:33.421Z,97355.03
2023-03-26T10:52:41.397Z,97354.53
2023-03-26T10:53:54.397Z,97357.72
2023-03-26T10:55:18.983Z,97360.28
2023-03-26T10:56:27.371Z,97365.16
2023-03-26T10:58:10.414Z,97361.13
2023-03-26T10:59:15.667Z,97363.47
2023-03-26T11:00:27.461Z,97368.53
2023-03-26T11:02:00.169Z,97358.34
2023-03-26T11:03:41.734Z,97351.88
2023-03-26T11:05:18.377Z,97359.94
2023-03-26T11:06:50.550Z,97371.97
2023-03-26T11:08:14.205Z,97359.16
2023-03-26T11:09:46.409Z,97357.88
2023-03-26T11:11:08.719Z,97347.28
2023-03-26T11:12:40.272Z,97355.34
2023-03-26T11:14:09.650Z,97347.66
2023-03-26T11:15:29.222Z,97339.06
2023-03-26T11:17:09.487Z,97339.88
2023-03-26T11:18:44.044Z,97328.69
2023-03-26T11:20:02.648Z,97310.16
2023-03-26T11:21:19.854Z,97324.22
2023-03-26T11:22:40.083Z,97333.44
2023-03-26T11:24:11.382Z,97326.03
2023-03-26T11:25:29.877Z,97322.88
2023-03-26T11:26:56.274Z,97325.25
2023-03-26T11:28:41.133Z,97312.75
2023-03-26T11:30:36.217Z,97314.53
2023-03-26T11:31:53.028Z,97324.31
2023-03-26T11:33:02.215Z,97328.41
2023-03-26T11:34:16.507Z,97321.94
2023-03-26T11:35:44.035Z,97331.59
2023-03-26T11:36:53.551Z,97327.47
2023-03-26T11:38:02.398Z,97324.31
2023-03-26T11:39:18.588Z,97327.47
2023-03-26T11:40:41.505Z,97323.56
2023-03-26T11:41:44.474Z,97333.97
2023-03-26T11:42:51.511Z,97332.56
2023-03-26T11:44:26.947Z,97323.13
2023-03-26T11:45:37.298Z,97325.47
2023-03-26T11:46:44.135Z,97322.78
2023-03-26T11:48:16.702Z,97323.25
2023-03-26T11:49:22.790Z,97316.28
2023-03-26T11:50:32.614Z,97316.28
2023-03-26T11:51:36.739Z,97315.47
2023-03-26T11:52:38.535Z,97313.09
2023-03-26T11:53:40.593Z,97305.03
2023-03-26T11:54:43.425Z,97299.66
2023-03-26T11:56:04.086Z,97309.34
2023-03-26T11:57:13.337Z,97297.91
2023-03-26T11:58:40.459Z,97314.75
2023-03-26T12:00:17.909Z,96733.34
2023-03-26T12:01:30.857Z,97298.91
2023-03-26T12:02:40.965Z,97303.78
2023-03-26T12:03:43.038Z,97295.53
2023-03-26T12:05:02.789Z,97306.47
2023-03-26T12:06:04.848Z,97304.88
2023-03-26T12:07:17.505Z,97293.19
2023-03-26T12:08:33.133Z,97303.34
2023-03-26T12:09:35.268Z,97292.41
2023-03-26T12:10:42.849Z,97295.88
2023-03-26T12:11:45.410Z,97300.47
2023-03-26T12:12:48.543Z,97297.31
2023-03-26T12:14:00.383Z,97298.75
2023-03-26T12:15:02.854Z,97298.91
2023-03-26T12:16:17.246Z,97304.13
2023-03-26T12:17:42.273Z,97297.50
2023-03-26T12:18:57.440Z,97302.50
2023-03-26T12:20:00.796Z,97302.38
2023-03-26T12:21:18.327Z,97294.47
2023-03-26T12:22:37.213Z,97300.81
2023-03-26T12:24:00.309Z,97299.41
2023-03-26T12:25:18.038Z,97300.22
2023-03-26T12:26:50.756Z,97294.63
2023-03-26T12:28:18.380Z,97296.56
2023-03-26T12:29:20.715Z,97299.84
2023-03-26T12:30:37.477Z,97290.97
2023-03-26T12:32:05.985Z,97294.19
2023-03-26T12:33:26.126Z,97296.84
2023-03-26T12:34:35.865Z,97304.13
2023-03-26T12:35:37.965Z,97315.22
2023-03-26T12:36:40.077Z,97300.78
2023-03-26T12:37:44.491Z,97301.59
2023-03-26T12:38:46.497Z,97297.78
2023-03-26T12:40:35.888Z,97300.53
2023-03-26T12:44:42.404Z,97296.84
2023-03-26T12:44:53.233Z,97302.91
2023-03-26T12:44:59.604Z,97277.69
2023-03-26T12:47:54.237Z,97295.56
2023-03-26T12:48:02.366Z,97290.03
2023-03-26T12:49:03.948Z,97294.94
2023-03-26T12:50:07.467Z,97296.22
2023-03-26T12:51:43.725Z,97293.72
2023-03-26T12:52:48.462Z,97283.69
2023-03-26T12:54:23.542Z,97293.84
2023-03-26T12:56:17.573Z,97274.75
2023-03-26T12:57:38.705Z,97283.25
2023-03-26T12:59:00.213Z,97277.56
2023-03-26T13:00:50.675Z,97281.03
2023-03-26T13:02:29.210Z,97271.97
2023-03-26T13:04:17.486Z,97268.53
2023-03-26T13:06:01.750Z,97260.28
2023-03-26T13:07:10.881Z,97263.44
2023-03-26T13:08:21.781Z,97261.38
2023-03-26T13:10:06.413Z,97253.31
2023-03-26T13:11:27.732Z,97261.72
2023-03-26T13:13:11.193Z,97254.75
2023-03-26T13:14:35.926Z,97252.06
2023-03-26T13:15:44.136Z,97257.88
2023-03-26T13:17:05.026Z,97245.84
2023-03-26T13:18:19.881Z,97246.47
2023-03-26T13:19:51.597Z,97251.41
2023-03-26T13:21:12.535Z,97252.06
2023-03-26T13:22:39.609Z,97243.66
2023-03-26T13:24:04.426Z,97241.44
2023-03-26T13:25:41.183Z,97248.41
2023-03-26T13:27:33.053Z,97242.09
2023-03-26T13:28:34.741Z,97236.19
2023-03-26T13:29:59.349Z,97238.41
2023-03-26T13:31:36.614Z,97239.22
2023-03-26T13:33:20.789Z,97241.44
2023-03-26T13:35:13.890Z,97234.03
2023-03-26T13:37:00.903Z,97233.75
2023-03-26T13:38:32.821Z,97231.66
2023-03-26T13:39:51.873Z,97229.69
2023-03-26T13:41:38.626Z,97228.13
2023-03-26T13:43:19.234Z,97233.69
2023-03-26T13:45:04.626Z,97224.84
2023-03-26T13:46:38.717Z,97228.63
2023-03-26T13:47:50.686Z,97229.41
2023-03-26T13:49:00.186Z,97233.50
2023-03-26T13:50:14.831Z,97224.94
2023-03-26T13:51:46.043Z,97223.06
2023-03-26T13:53:02.050Z,97225.28
2023-03-26T13:54:40.093Z,97236.06
2023-03-26T13:55:54.658Z,97236.84
2023-03-26T13:57:29.459Z,97229.44
2023-03-26T13:58:47.394Z,97228.44
2023-03-26T14:00:21.736Z,97228.34
2023-03-26T14:01:35.221Z,97225.75
2023-03-26T14:02:55.899Z,97226.88
2023-03-26T14:04:38.800Z,97221.53
2023-03-26T14:05:48.209Z,97218.47
2023-03-26T14:06:57.595Z,97215.94
2023-03-26T14:08:27.641Z,97213.28
2023-03-26T14:10:10.116Z,97211.38
2023-03-26T14:11:21.130Z,97211.69
2023-03-26T14:12:49.035Z,97213.47
2023-03-26T14:14:32.903Z,97210.75
2023-03-26T14:15:55.795Z,97210.44
2023-03-26T14:17:13.853Z,97211.38
2023-03-26T14:18:51.380Z,97211.06